Vaaraa aiheuttavia sääilmiöitä ei ole odotettavissa.    Ei varoituksia

Webkamera Lisätietoa Webcam


Yksityisiä sääasemia lähellä:

Sääasema Juupajoki

Sääasema Orivesi

Sääasema Muurame

Sääasema Jyväskylä

Sääasema Vihtavuori


Löydät sääaseman tiedot myös:

Finland Weather Exchange

European Weather Network

Weather Underground

AWEKAS

Windy.com



Säätiedot lähimmiltä METAR asemilta

   
EFHA - Halli (Fin-Afb), Finland
Etäisyys asemalta: Kaakko 25 km
Päivitetty: 28.01.2020 19:20
Sumua, Pilvistä  
Sumua, Pilvistä  
   Tuuli: Eteläkaakko 3.1 m/s
Tuuli: Eteläkaakko 3.1 m/s
Lämpötila: 0°C
Tuulen hyytävyys: -3°C
Kastepiste: 0°C
Kosteus: 100%
Ilmanpaine: 999 hPa
Pilvisyys: Pilvistä
Näkyvyys: 1 km
Pilvitiedot: Pilvistä 31 m
EFHA 281720Z AUTO 15006KT 0650 R26/0750 FG VV001 00/00 Q0999
EFJY - Jyvaskyla (Mil/Civ), Finland
Etäisyys asemalta: Koillinen 75 km
Päivitetty: 28.01.2020 19:20
Sumupilvilauttoja, Sumua, Pilvistä  
Sumupilvilauttoja, Sumua, Pilvistä  
   Tuuli: Itä 1 m/s
Tuuli: Itä 1 m/s
Lämpötila: -2°C
Kastepiste: -2°C
Kosteus: 100%
Ilmanpaine: 999 hPa
Pilvisyys: Pilvistä
Näkyvyys: 1 km
Pilvitiedot: Pilvistä 61 m
EFJY 281720Z AUTO 10002KT 1000 R30/1400N BCFG VV002 M02/M02 Q0999
EFTP - Tampere/Pirkkala, Finland
Etäisyys asemalta: Lounas 81 km
Päivitetty: 28.01.2020 19:20
Utua, Pilvistä  
Utua, Pilvistä  
   Tuuli: Eteläkaakko 2.6 m/s
Tuuli: Eteläkaakko 2.6 m/s
Lämpötila: 1°C
Tuulen hyytävyys: -2°C
Kastepiste: 1°C
Kosteus: 100%
Ilmanpaine: 998 hPa
Pilvisyys: Pilvistä
Näkyvyys: 4 km
Pilvitiedot: Pilvistä 61 m
EFTP 281720Z AUTO 15005KT 110V180 3700 BR OVC002 01/01 Q0998
EFSI - Seinajoki-Ilmajoki, Finland
Etäisyys asemalta: Luode 114 km
Päivitetty: 28.01.2020 19:20
Utua, Pilvistä  
Utua, Pilvistä  
   Tuuli: Itäkaakko 1.5 m/s
Tuuli: Itäkaakko 1.5 m/s
Lämpötila: 0°C
Tuulen hyytävyys: -2°C
Kastepiste: 0°C
Kosteus: 100%
Ilmanpaine: 997 hPa
Pilvisyys: Pilvistä
Näkyvyys: 1 km
Pilvitiedot: Pilvistä 61 m
EFSI 281720Z AUTO 12003KT 1400 BR VV002 00/00 Q0997
EFMI - Mikkeli, Finland
Etäisyys asemalta: Itäkaakko 147 km
Päivitetty: 28.01.2020 19:20
Heikkoja sadekuuroja, Lumisadetta, Pilvistä  
Heikkoja sadekuuroja, Lumisadetta, Pilvistä  
   Tuuli: Itäkaakko 2.6 m/s
Tuuli: Itäkaakko 2.6 m/s
Lämpötila: -2°C
Tuulen hyytävyys: -6°C
Kastepiste: -2°C
Kosteus: 100%
Ilmanpaine: 1001 hPa
Pilvisyys: Pilvistä
Näkyvyys: Enemmän kuin 10 km
Pilvitiedot: Pilvistä 122 m
EFMI 281720Z AUTO 11005KT 9999 -SHSN OVC004 M02/M02 Q1001
EFPO - Pori (Mil/Civ), Finland
Etäisyys asemalta: Länsilounas 154 km
Päivitetty: 28.01.2020 19:20
Pilvistä  
Pilvistä  
   Tuuli: Itä 2.1 m/s
Tuuli: Itä 2.1 m/s
Lämpötila: 2°C
Tuulen hyytävyys: 0°C
Kastepiste: 2°C
Kosteus: 100%
Ilmanpaine: 997 hPa
Pilvisyys: Pilvistä
Näkyvyys: 7 km
Pilvitiedot: Puolipilvistä 122 m,
Pilvistä 701 m
EFPO 281720Z AUTO 10004KT 7000 SCT004 OVC023 02/02 Q0997
EFUT - Utti (Fin-Afb), Finland
Etäisyys asemalta: Kaakko 180 km
Päivitetty: 28.01.2020 19:20
Heikkoja sadekuuroja, Sade, Ukkosta  
Heikkoja sadekuuroja, Sade, Ukkosta  
   Tuuli: Eteläkaakko 2.6 m/s
Tuuli: Eteläkaakko 2.6 m/s
Lämpötila: 1°C
Tuulen hyytävyys: -2°C
Kastepiste: 1°C
Kosteus: 100%
Ilmanpaine: 1000 hPa
Pilvisyys: Ukkosta
Näkyvyys: 1 km
Pilvitiedot: Ukkosta
EFUT 281720Z AUTO 15005KT 120V180 1400 R25/1100N -SHRA //////CB 01/01 Q1000
EFVA - Vaasa, Finland
Etäisyys asemalta: Luode 180 km
Päivitetty: 28.01.2020 19:20
Sumupilvilauttoja, Sumua, Pilvistä  
Sumupilvilauttoja, Sumua, Pilvistä  
   Tuuli: Kaakko 3.1 m/s
Tuuli: Kaakko 3.1 m/s
Lämpötila: 1°C
Tuulen hyytävyys: -2°C
Kastepiste: 0°C
Kosteus: 93%
Ilmanpaine: 998 hPa
Pilvisyys: Pilvistä
Näkyvyys: 2 km
Pilvitiedot: Pilvistä 91 m
EFVA 281720Z AUTO 13006KT 1700 BCFG VV003 01/00 Q0998
EFHK - Helsinki/Vantaa, Finland
Etäisyys asemalta: Etelä 191 km
Päivitetty: 28.01.2020 19:20
Melkein pilvistä  
Melkein pilvistä  
   Tuuli: Itäkaakko 2.6 m/s
Tuuli: Itäkaakko 2.6 m/s
Lämpötila: 2°C
Tuulen hyytävyys: -1°C
Kastepiste: 2°C
Kosteus: 100%
Ilmanpaine: 999 hPa
Pilvisyys: Melkein pilvistä
Näkyvyys: Enemmän kuin 10 km
Pilvitiedot: Melkein pilvistä 213 m
EFHK 281720Z 12005KT 080V140 9999 BKN007 02/02 Q0999 NOSIG

Alkuperäinen skripti  Saratoga-weather.org Sovitettu myös templatelle  Weerstation Leuven

Laitteet joita käytämme:

Sääasema
Davis VP2

Sääasemaohjelma
Cumulus

Sääaseman palvelin
HP ProBook 6460b

Palveluntarjoaja
Radicenter

Davis VP2

Cumulus

HP ProBook 6460b

Radicenter




Flag Counter Cumulus Top Weather Sites